K05 EFKU-EFKU

Flight info

Callsign K05
Flight time 0h 9m
Altitude 1500
Route TC
Aircraft G115/L-SDGR/C

Departure

Time 2026-04-12 07:56
Airport Kuopio Airport (EFKU)

Arrival

Time 2026-04-12 08:05
Airport Kuopio Airport (EFKU)
Time Latitude Longitude Altitude Speed Heading
2026-04-12 07:27 63.00362 27.79104 314 ft 0 kts 68°
2026-04-12 07:34 63.00363 27.79105 314 ft 0 kts 68°
2026-04-12 07:35 63.00363 27.79104 314 ft 0 kts 68°
2026-04-12 07:39 63.00363 27.79105 314 ft 0 kts 68°
2026-04-12 07:40 63.00361 27.79141 313 ft 7 kts 139°
2026-04-12 07:40 63.00301 27.79205 312 ft 11 kts 154°
2026-04-12 07:40 63.00222 27.79281 310 ft 7 kts 155°
2026-04-12 07:41 63.00197 27.79381 310 ft 11 kts 63°
2026-04-12 07:41 63.00236 27.79571 307 ft 13 kts 76°
2026-04-12 07:41 63.00206 27.79711 308 ft 12 kts 127°
2026-04-12 07:41 63.00138 27.79851 311 ft 15 kts 154°
2026-04-12 07:42 63.00039 27.79947 315 ft 16 kts 158°
2026-04-12 07:42 62.99963 27.80035 316 ft 10 kts 121°
2026-04-12 07:42 62.99974 27.80189 312 ft 8 kts 45°
2026-04-12 07:43 62.99993 27.80223 311 ft 0 kts 26°
2026-04-12 07:54 63.00031 27.80245 309 ft 12 kts 12°
2026-04-12 07:54 63.00128 27.80275 305 ft 14 kts 10°
2026-04-12 07:55 63.00242 27.80206 304 ft 30 kts 340°
2026-04-12 07:55 63.00586 27.79899 314 ft 72 kts 338°
2026-04-12 07:55 63.01066 27.79438 500 ft 75 kts 339°
2026-04-12 07:55 63.01539 27.79013 732 ft 71 kts 331°
2026-04-12 07:56 63.01935 27.78487 955 ft 70 kts 310°
2026-04-12 07:56 63.01979 27.77391 1143 ft 76 kts 253°
2026-04-12 07:56 63.01843 27.76289 1357 ft 71 kts 234°
2026-04-12 07:56 63.01438 27.75996 1477 ft 69 kts 176°
2026-04-12 07:57 63.00914 27.75936 1542 ft 82 kts 180°
2026-04-12 07:57 63.00317 27.75909 1658 ft 88 kts 177°
2026-04-12 07:57 62.99689 27.75964 1745 ft 92 kts 174°
2026-04-12 07:57 62.99061 27.76173 1874 ft 90 kts 167°
2026-04-12 07:58 62.98431 27.76513 1946 ft 97 kts 165°
2026-04-12 07:58 62.97827 27.76923 2037 ft 100 kts 162°
2026-04-12 07:58 62.97302 27.77761 2110 ft 91 kts 115°
2026-04-12 07:58 62.97348 27.79179 2075 ft 104 kts 76°
2026-04-12 07:59 62.97581 27.80674 1813 ft 100 kts 67°
2026-04-12 07:59 62.98039 27.81819 1553 ft 101 kts 22°
2026-04-12 07:59 62.98755 27.81632 1037 ft 110 kts 339°
2026-04-12 07:59 62.99453 27.80964 526 ft 108 kts 339°
2026-04-12 08:00 63.00083 27.80364 319 ft 81 kts 338°
2026-04-12 08:00 63.00507 27.79972 306 ft 54 kts 345°
2026-04-12 08:00 63.00916 27.79557 389 ft 72 kts 336°
2026-04-12 08:00 63.01348 27.79129 619 ft 65 kts 336°
2026-04-12 08:01 63.01785 27.78776 786 ft 69 kts 345°
2026-04-12 08:01 63.02262 27.78386 966 ft 74 kts 323°
2026-04-12 08:01 63.02435 27.77427 1203 ft 70 kts 252°
2026-04-12 08:01 63.02293 27.76288 1376 ft 80 kts 247°
2026-04-12 08:02 63.02068 27.75216 1525 ft 78 kts 214°
2026-04-12 08:02 63.01520 27.75143 1513 ft 92 kts 169°
2026-04-12 08:02 63.00865 27.75379 1555 ft 96 kts 170°
2026-04-12 08:02 63.00195 27.75505 1599 ft 98 kts 174°
2026-04-12 08:03 62.99517 27.75658 1606 ft 98 kts 171°
2026-04-12 08:03 62.98850 27.75874 1618 ft 94 kts 170°
2026-04-12 08:03 62.98241 27.76091 1724 ft 82 kts 169°
2026-04-12 08:03 62.97878 27.76922 1512 ft 89 kts 105°
2026-04-12 08:04 62.97948 27.78299 1275 ft 92 kts 79°
2026-04-12 08:04 62.98113 27.79573 1159 ft 84 kts 75°
2026-04-12 08:04 62.98319 27.80740 964 ft 81 kts 66°
2026-04-12 08:04 62.98736 27.81432 772 ft 75 kts
2026-04-12 08:05 62.99270 27.81139 451 ft 86 kts 337°
2026-04-12 08:05 62.99773 27.80651 326 ft 65 kts 340°
2026-04-12 08:05 63.00109 27.80346 306 ft 45 kts 333°
2026-04-12 08:05 63.00523 27.79959 355 ft 72 kts 336°
2026-04-12 08:06 63.00920 27.79508 564 ft 66 kts 330°
2026-04-12 08:06 63.01333 27.79142 756 ft 63 kts 339°
2026-04-12 08:06 63.01778 27.78752 896 ft 74 kts 334°
2026-04-12 08:06 63.02255 27.78252 1056 ft 77 kts 329°
2026-04-12 08:07 63.02489 27.77262 1178 ft 77 kts 261°
2026-04-12 08:07 63.02384 27.76064 1197 ft 82 kts 250°
2026-04-12 08:07 63.02208 27.74873 1254 ft 79 kts 232°
2026-04-12 08:07 63.01780 27.74464 1357 ft 66 kts 174°
2026-04-12 08:08 63.01310 27.74547 1423 ft 67 kts 173°
2026-04-12 08:08 63.00853 27.74629 1515 ft 64 kts 173°
2026-04-12 08:08 63.00421 27.74732 1616 ft 64 kts 168°
2026-04-12 08:08 62.99925 27.74906 1646 ft 76 kts 168°
2026-04-12 08:09 62.99382 27.75161 1625 ft 84 kts 165°
2026-04-12 08:09 62.98944 27.75769 1666 ft 70 kts 112°
2026-04-12 08:09 62.98764 27.76891 1488 ft 85 kts 114°
2026-04-12 08:09 62.98596 27.78085 1430 ft 84 kts 113°
2026-04-12 08:10 62.98315 27.79170 1396 ft 74 kts 102°
2026-04-12 08:10 62.98400 27.80268 1221 ft 75 kts 81°
2026-04-12 08:10 62.98695 27.81144 1004 ft 81 kts 34°
2026-04-12 08:10 62.99254 27.81158 602 ft 92 kts 337°
2026-04-12 08:11 62.99832 27.80593 327 ft 80 kts 339°
2026-04-12 08:11 63.00239 27.80213 307 ft 49 kts 340°
2026-04-12 08:11 63.00506 27.79982 306 ft 35 kts 336°
2026-04-12 08:11 63.00671 27.79828 313 ft 8 kts 327°
2026-04-12 08:12 63.00701 27.79742 315 ft 8 kts 281°
2026-04-12 08:12 63.00686 27.79602 315 ft 10 kts 241°
2026-04-12 08:12 63.00654 27.79454 316 ft 11 kts 231°
2026-04-12 08:12 63.00573 27.79458 314 ft 14 kts 156°
2026-04-12 08:13 63.00480 27.79541 310 ft 15 kts 161°
2026-04-12 08:13 63.00381 27.79632 306 ft 16 kts 159°
2026-04-12 08:13 63.00283 27.79719 305 ft 14 kts 157°
2026-04-12 08:13 63.00205 27.79793 308 ft 12 kts 154°
2026-04-12 08:14 63.00127 27.79867 312 ft 12 kts 162°
2026-04-12 08:14 63.00064 27.79923 314 ft 8 kts 160°
2026-04-12 08:14 63.00011 27.79971 315 ft 10 kts 158°
2026-04-12 08:14 62.99957 27.80092 315 ft 13 kts 93°
2026-04-12 08:15 62.99985 27.80210 312 ft 0 kts 34°
2026-04-12 08:17 62.99985 27.80211 312 ft 2 kts 30°
2026-04-12 08:17 63.00043 27.80242 308 ft 11 kts
2026-04-12 08:17 63.00127 27.80258 305 ft 13 kts 10°
2026-04-12 08:18 63.00279 27.80180 303 ft 45 kts 339°
2026-04-12 08:18 63.00694 27.79783 399 ft 71 kts 341°
2026-04-12 08:18 63.01146 27.79482 651 ft 62 kts 337°
2026-04-12 08:18 63.01540 27.79061 814 ft 63 kts 333°
2026-04-12 08:19 63.01895 27.78514 953 ft 66 kts 311°
2026-04-12 08:19 63.01905 27.77562 1154 ft 68 kts 242°
2026-04-12 08:19 63.01715 27.76547 1304 ft 71 kts 223°
2026-04-12 08:19 63.01273 27.76338 1412 ft 71 kts 165°
2026-04-12 08:20 63.00751 27.76702 1417 ft 84 kts 160°
2026-04-12 08:20 63.00220 27.77125 1551 ft 80 kts 161°
2026-04-12 08:20 62.99660 27.77372 1590 ft 90 kts 180°
2026-04-12 08:20 62.99036 27.77526 1712 ft 88 kts 161°
2026-04-12 08:21 62.98481 27.77988 1778 ft 84 kts 148°
2026-04-12 08:21 62.97945 27.78945 1776 ft 103 kts 142°
2026-04-12 08:21 62.97558 27.80207 1975 ft 100 kts 87°
2026-04-12 08:21 62.98004 27.81496 1841 ft 117 kts 27°
2026-04-12 08:22 62.98858 27.81543 1227 ft 139 kts 345°
2026-04-12 08:22 62.99763 27.80642 693 ft 131 kts 334°
2026-04-12 08:22 63.00538 27.79928 525 ft 115 kts 338°
2026-04-12 08:22 63.01211 27.79297 603 ft 99 kts 338°
2026-04-12 08:23 63.01767 27.78703 871 ft 85 kts 332°
2026-04-12 08:23 63.02308 27.78489 1034 ft 82 kts 21°
2026-04-12 08:23 63.02718 27.79414 1041 ft 94 kts 79°
2026-04-12 08:23 63.02416 27.80603 1080 ft 99 kts 152°
2026-04-12 08:24 63.01774 27.81246 1131 ft 103 kts 149°
2026-04-12 08:24 63.01196 27.82020 1379 ft 89 kts 150°
2026-04-12 08:24 63.00613 27.82546 1464 ft 85 kts 163°
2026-04-12 08:24 63.00048 27.83052 1341 ft 81 kts 148°
2026-04-12 08:25 62.99552 27.83749 1379 ft 77 kts 147°
2026-04-12 08:25 62.99080 27.83717 1233 ft 76 kts 217°
2026-04-12 08:25 62.98967 27.82574 1018 ft 86 kts 286°
2026-04-12 08:25 62.99262 27.81286 497 ft 100 kts 314°
2026-04-12 08:26 62.99801 27.80634 338 ft 76 kts 338°
2026-04-12 08:26 63.00336 27.80128 330 ft 91 kts 339°
2026-04-12 08:26 63.00769 27.79691 621 ft 55 kts 327°
2026-04-12 08:26 63.01200 27.79348 666 ft 69 kts 340°
2026-04-12 08:27 63.01650 27.78949 829 ft 75 kts 333°
2026-04-12 08:27 63.02132 27.78469 1031 ft 77 kts 349°
2026-04-12 08:27 63.02545 27.79044 1119 ft 84 kts 95°
2026-04-12 08:27 63.02146 27.79771 1464 ft 59 kts 152°
2026-04-12 08:28 63.01817 27.80275 1682 ft 57 kts 142°
2026-04-12 08:28 63.01494 27.80856 1868 ft 59 kts 140°
2026-04-12 08:28 63.01195 27.81371 2062 ft 57 kts 141°
2026-04-12 08:28 63.00847 27.81848 2229 ft 55 kts 154°
2026-04-12 08:29 63.00520 27.82268 2359 ft 56 kts 145°
2026-04-12 08:29 63.00222 27.82794 2271 ft 67 kts 148°
2026-04-12 08:29 62.99743 27.83334 2042 ft 75 kts 166°
2026-04-12 08:29 62.99199 27.83415 1722 ft 85 kts 187°
2026-04-12 08:30 62.98756 27.82592 1424 ft 95 kts 247°
2026-04-12 08:30 62.98999 27.81490 941 ft 91 kts 347°
2026-04-12 08:30 62.99561 27.80868 485 ft 91 kts 336°
2026-04-12 08:30 63.00072 27.80371 315 ft 63 kts 338°
2026-04-12 08:31 63.00390 27.80087 304 ft 46 kts 324°
2026-04-12 08:31 63.00806 27.79680 380 ft 75 kts 333°
2026-04-12 08:31 63.01295 27.79226 619 ft 73 kts 340°
2026-04-12 08:31 63.01733 27.78852 881 ft 62 kts 338°
2026-04-12 08:32 63.02169 27.78752 1018 ft 70 kts 36°
2026-04-12 08:32 63.02370 27.79872 983 ft 84 kts 99°
2026-04-12 08:32 63.01893 27.80520 1039 ft 80 kts 148°
2026-04-12 08:32 63.01423 27.81047 1180 ft 69 kts 154°
2026-04-12 08:33 63.00984 27.81513 1186 ft 71 kts 153°
2026-04-12 08:33 63.00515 27.81986 1173 ft 75 kts 153°
2026-04-12 08:33 63.00013 27.82548 1222 ft 79 kts 149°
2026-04-12 08:33 62.99542 27.83122 1294 ft 73 kts 154°
2026-04-12 08:34 62.99077 27.83618 1275 ft 80 kts 151°
2026-04-12 08:34 62.98588 27.84172 1322 ft 79 kts 149°
2026-04-12 08:34 62.98111 27.84540 1317 ft 79 kts 202°
2026-04-12 08:34 62.97807 27.83523 1108 ft 80 kts 239°
2026-04-12 08:35 62.97932 27.82421 1001 ft 82 kts 326°
2026-04-12 08:35 62.98519 27.81877 754 ft 101 kts 336°
2026-04-12 08:35 62.99149 27.81239 489 ft 99 kts 338°
2026-04-12 08:35 62.99773 27.80649 333 ft 91 kts 338°
2026-04-12 08:36 63.00288 27.80171 312 ft 69 kts 340°
2026-04-12 08:36 63.00669 27.79812 314 ft 50 kts 341°
2026-04-12 08:36 63.01053 27.79466 392 ft 68 kts 333°
2026-04-12 08:36 63.01477 27.79050 616 ft 64 kts 340°
2026-04-12 08:37 63.01900 27.78724 812 ft 65 kts 342°
2026-04-12 08:37 63.02375 27.78478 790 ft 78 kts 323°
2026-04-12 08:37 63.02188 27.78002 536 ft 73 kts 137°
2026-04-12 08:37 63.01793 27.78752 338 ft 75 kts 150°
2026-04-12 08:38 63.01382 27.79157 327 ft 55 kts 154°
2026-04-12 08:38 63.01173 27.79341 327 ft 15 kts 165°
2026-04-12 08:38 63.01103 27.79229 325 ft 14 kts 246°
2026-04-12 08:38 63.01063 27.79053 324 ft 10 kts 226°
2026-04-12 08:39 63.01005 27.79061 323 ft 9 kts 150°
2026-04-12 08:39 63.00949 27.79110 323 ft 8 kts 160°
2026-04-12 08:39 63.00910 27.79149 324 ft 5 kts 152°
2026-04-12 08:39 63.00871 27.79184 323 ft 10 kts 160°
2026-04-12 08:40 63.00799 27.79252 322 ft 12 kts 151°
2026-04-12 08:40 63.00722 27.79325 319 ft 13 kts 149°
2026-04-12 08:40 63.00642 27.79335 316 ft 11 kts 220°
2026-04-12 08:40 63.00578 27.79233 314 ft 12 kts 211°
2026-04-12 08:41 63.00518 27.79130 314 ft 10 kts 211°
2026-04-12 08:41 63.00461 27.79050 314 ft 9 kts 220°
2026-04-12 08:41 63.00413 27.78984 314 ft 8 kts 188°
2026-04-12 08:41 63.00405 27.79011 314 ft 1 kts 62°
2026-04-12 08:42 63.00405 27.79016 314 ft 0 kts 71°